This is the latest recevied weather packets stored in our database for station/object SHLBYV-WX. If no packets are shown the sender has not sent any weather packets the latest 1 day(s).
| Time | Temp. | Humidity | Pressure | Rain* | Wind** | Luminosity | Snow |
|---|---|---|---|---|---|---|---|
| 1778114750 | 7.78° C | 41% | 985.4 hPa | 0 mm | - | - | - |
| 1778113867 | 8.33° C | 43% | 985.2 hPa | 0 mm | - | - | - |
| 1778112949 | 8.89° C | 43% | 985.2 hPa | 0 mm | - | - | - |
| 1778109351 | 10.56° C | 36% | 984.2 hPa | 0 mm | - | - | - |
| 1778103070 | 11.11° C | 35% | 985 hPa | 0 mm | - | - | - |
| 1778094085 | 11.67° C | 36% | 984.2 hPa | 0 mm | - | - | - |
| 1778093155 | 11.67° C | 37% | 983.9 hPa | 0 mm | - | - | - |
| 1778091355 | 11.67° C | 34% | 984 hPa | 0 mm | - | - | - |
| 1778086886 | 11.11° C | 33% | 984.5 hPa | 0 mm | - | - | - |
| 1778084156 | 10.56° C | 37% | 984 hPa | 0 mm | - | - | - |
| 1778080555 | 9.44° C | 44% | 983.8 hPa | 0 mm | - | - | - |
| 1778079692 | 8.89° C | 44% | 983.8 hPa | 0 mm | - | - | - |
| 1778073353 | 7.22° C | 60% | 982.9 hPa | 0 mm | - | - | - |
| 1778069757 | 5° C | 65% | 981.8 hPa | 0 mm | - | - | - |
| 1778068894 | 4.44° C | 65% | 981.8 hPa | 0 mm | - | - | - |
| 1778067955 | 3.89° C | 67% | 981.1 hPa | 0 mm | - | - | - |
| 1778067071 | 3.89° C | 69% | 981.1 hPa | 0 mm | - | - | - |
| 1778066153 | 3.33° C | 69% | 981.1 hPa | 0 mm | - | - | - |
| 1778064352 | 2.78° C | 67% | 980.7 hPa | 0 mm | - | - | - |
| 1778062553 | 2.78° C | 67% | 981.2 hPa | 0 mm | - | - | - |
| 1778061690 | 3.33° C | 67% | 981.2 hPa | 0 mm | - | - | - |
| 1778060753 | 3.33° C | 62% | 980 hPa | 0 mm | - | - | - |
| 1778058952 | 3.89° C | 62% | 980.5 hPa | 0 mm | - | - | - |
| 1778058089 | 3.89° C | 62% | 980.5 hPa | 0 mm | - | - | - |
| 1778055352 | 4.44° C | 62% | 980.3 hPa | 0 mm | - | - | - |
* Rain latest hour (hover to see other rain measurements)
** Current wind speed in m/s (hover to see current wind gust speed)